Latest Coastal Weather Observations for Port Lincoln Airport

IDS60701

Issued at 3:35 pm CST Friday 22 August 2014 (issued every 10 minutes, with the page automatically refreshed every 10 minutes)

About coastal observations | Map of coastal stations | Coastal observations for SA | Marine services | Other Formats
Station Details ID: 018192 Name: PORT LINCOLN AWS Lat: -34.60 Lon: 135.88 Height: 8.5 m
Data from the previous 72 hours. | See also: Recent months at Port Lincoln Airport
Date/Time
CST
Temp

°C
Wind Pressure Rain
since 9am
mm
Weather Cloud Vis
km
Sea
Height
m
Swell
Dir
 
Speed
knots
Gust
knots
hPa Trend Height
m
Period
s
Dir
22/03:30pm 17.3 NE 14 19 1019.1 - 0.0 - - 10 - - - -
22/03:00pm 17.5 ENE 14 18 1019.2 - 0.0 - Mostly clear 10 - - - -
22/02:30pm 19.1 NE 11 14 1019.4 - 0.0 - - 10 - - - -
22/02:00pm 21.6 N 15 20 1019.7 - 0.0 - - 10 - - - -
22/01:30pm 21.4 N 15 20 1020.0 - 0.0 - - 10 - - - -
22/01:00pm 21.1 N 15 21 1020.6 - 0.0 - - 10 - - - -
22/12:30pm 21.1 N 15 22 1021.0 - 0.0 - - 10 - - - -
22/12:00pm 20.1 NNE 15 19 1021.7 - 0.0 - - 10 - - - -
22/11:30am 19.2 NNE 13 18 1022.2 - 0.0 - - 10 - - - -
22/11:00am 19.1 NNE 12 16 1022.7 - 0.0 - - 10 - - - -
22/10:30am 17.8 NNE 10 13 1023.1 - 0.0 - - 10 - - - -
22/10:00am 15.6 E 3 6 1023.5 - 0.0 - - 10 - - - -
22/09:30am 13.0 NNW 1 4 1023.8 - 0.0 - - 10 - - - -
22/09:00am 11.6 ENE 6 7 1023.7 - 0.0 - - 10 - - - -
22/08:30am 10.3 N 4 5 1023.7 - 0.0 - - 10 - - - -
22/08:00am 8.8 CALM 0 0 1023.6 - 0.0 - - 10 - - - -
22/07:30am 6.1 N 1 3 1023.3 - 0.0 - - 10 - - - -
22/07:00am 4.7 N 3 4 1022.9 - 0.0 - - 10 - - - -
22/06:30am 4.1 NNW 4 5 1022.8 - 0.0 - - 10 - - - -
22/06:00am 5.7 N 2 4 1022.5 - 0.0 - - 10 - - - -
22/05:30am 4.8 NW 3 6 1022.4 - 0.0 - - 10 - - - -
22/05:00am 5.9 CALM 0 3 1022.2 - 0.0 - - 10 - - - -
22/04:30am 8.3 N 4 5 1022.1 - 0.0 - - 10 - - - -
22/04:00am 6.3 N 1 3 1022.0 - 0.0 - - 10 - - - -
22/03:30am 7.5 N 4 5 1022.0 - 0.0 - - 10 - - - -
22/03:00am 5.9 CALM 0 0 1022.1 - 0.0 - - 10 - - - -
22/02:30am 5.4 N 1 3 1022.6 - 0.0 - - 10 - - - -
22/02:00am 7.5 N 4 6 1022.8 - 0.0 - - 10 - - - -
22/01:30am 8.4 N 4 5 1023.1 - 0.0 - - 10 - - - -
22/01:00am 8.7 N 1 3 1023.2 - 0.0 - - 10 - - - -
22/12:30am 9.1 N 4 5 1023.3 - 0.0 - - 10 - - - -
22/12:00am 10.3 NNE 8 10 1023.3 - 0.0 - - 10 - - - -
 
Date/Time
CST
Temp

°C
Wind Pressure Rain
since 9am
mm
Weather Cloud Vis
km
Sea
Height
m
Swell
Dir
 
Speed
knots
Gust
knots
hPa Trend Height
m
Period
s
Dir
21/11:30pm 9.9 NNE 9 10 1023.6 - 0.0 - - 10 - - - -
21/11:00pm 10.1 NNE 9 10 1023.7 - 0.0 - - 10 - - - -
21/10:30pm 9.6 NNE 9 10 1024.0 - 0.0 - - 10 - - - -
21/10:00pm 9.9 NE 9 11 1024.0 - 0.0 - - 10 - - - -
21/09:30pm 8.8 NE 7 9 1024.1 - 0.0 - - 10 - - - -
21/09:00pm 7.9 ESE 2 5 1024.0 - 0.0 - - 10 - - - -
21/08:30pm 7.7 CALM 0 0 1023.8 - 0.0 - - 10 - - - -
21/08:00pm 7.6 CALM 0 0 1023.7 - 0.0 - - 10 - - - -
21/07:30pm 9.2 W 2 4 1023.6 - 0.0 - - 10 - - - -
21/07:00pm 9.9 CALM 0 0 1023.3 - 0.0 - - 10 - - - -
21/06:30pm 11.3 SE 5 6 1023.1 - 0.0 - - 10 - - - -
21/06:00pm 11.9 SE 4 5 1023.0 - 0.0 - - 10 - - - -
21/05:30pm 13.3 E 5 6 1022.8 - 0.0 - - 10 - - - -
21/05:00pm 14.2 ENE 6 9 1022.7 - 0.0 - - 10 - - - -
21/04:30pm 14.5 E 8 10 1022.4 - 0.0 - - 10 - - - -
21/04:00pm 14.7 E 8 10 1022.4 - 0.0 - - 10 - - - -
21/03:30pm 15.3 E 8 10 1022.4 - 0.0 - - 10 - - - -
21/03:00pm 15.0 E 9 11 1022.5 - 0.0 - - 10 - - - -
21/02:30pm 15.3 E 7 10 1022.7 - 0.0 - Partly cloudy 10 - - - -
21/02:00pm 15.4 ENE 9 12 1022.8 - 0.0 - Partly cloudy 10 - - - -
21/01:30pm 14.3 ENE 13 16 1022.9 - 0.0 - Partly cloudy 10 - - - -
21/01:00pm 15.2 ENE 13 15 1023.4 - 0.0 - - 10 - - - -
21/12:30pm 15.0 ENE 13 15 1023.9 - 0.0 - - 10 - - - -
21/12:00pm 15.1 ENE 11 14 1024.6 - 0.0 - - 10 - - - -
21/11:30am 14.3 ENE 11 13 1025.0 - 0.0 - - 10 - - - -
21/11:00am 13.9 ENE 11 13 1025.1 - 0.0 - - 10 - - - -
21/10:30am 13.4 ENE 10 14 1025.3 - 0.0 - - 10 - - - -
21/10:00am 13.2 ENE 9 12 1025.5 - 0.0 - - 10 - - - -
21/09:30am 12.6 NE 7 13 1025.7 - 0.0 - - 10 - - - -
21/09:00am 11.9 NNE 6 8 1025.9 - 0.0 - - 10 - - - -
21/08:30am 11.1 CALM 0 3 1025.8 - 0.0 - - 10 - - - -
21/08:00am 9.4 NNE 2 5 1025.7 - 0.0 - - 10 - - - -
21/07:30am 6.3 CALM 0 0 1025.6 - 0.0 - - 10 - - - -
21/07:00am 5.2 CALM 0 0 1025.5 - 0.0 - Partly cloudy 10 - - - -
21/06:30am 6.4 CALM 0 3 1025.3 - 0.0 - - 10 - - - -
21/06:00am 6.0 CALM 0 0 1025.2 - 0.0 - - 10 - - - -
21/05:30am 7.1 CALM 0 3 1025.2 - 0.0 - - 10 - - - -
21/05:00am 6.9 NNE 1 5 1025.2 - 0.0 - - 10 - - - -
21/04:30am 7.2 NE 1 4 1025.2 - 0.0 - - 10 - - - -
21/04:00am 7.0 NE 1 3 1025.3 - 0.0 - - 10 - - - -
21/03:30am 6.5 CALM 0 3 1025.5 - 0.0 - - 10 - - - -
21/03:00am 6.2 N 2 4 1025.6 - 0.0 - - 10 - - - -
21/02:30am 5.0 NNW 4 4 1025.9 - 0.0 - - 10 - - - -
21/02:00am 5.1 NNW 1 5 1026.0 - 0.0 - - 10 - - - -
21/01:30am 5.8 CALM 0 3 1026.2 - 0.0 - - 10 - - - -
21/01:00am 8.1 NNE 2 4 1026.4 - 0.0 - - 10 - - - -
21/12:30am 9.5 ENE 8 11 1026.4 - 0.0 - - 10 - - - -
21/12:00am 10.6 ENE 11 15 1026.4 - 0.0 - - 10 - - - -
 
Date/Time
CST
Temp

°C
Wind Pressure Rain
since 9am
mm
Weather Cloud Vis
km
Sea
Height
m
Swell
Dir
 
Speed
knots
Gust
knots
hPa Trend Height
m
Period
s
Dir
20/11:30pm 10.4 ENE 9 12 1026.5 - 0.0 - - 10 - - - -
20/11:00pm 10.4 ENE 10 12 1026.6 - 0.0 - - 10 - - - -
20/10:30pm 10.7 ENE 11 14 1026.8 - 0.0 - Partly cloudy 10 - - - -
20/10:00pm 10.8 E 10 14 1026.8 - 0.0 - - 10 - - - -
20/09:30pm 10.6 E 10 13 1026.8 - 0.0 - Partly cloudy 10 - - - -
20/09:00pm 11.1 E 11 16 1026.8 - 0.0 - Mostly clear 10 - - - -
20/08:30pm 10.5 E 9 12 1026.7 - 0.0 - - 10 - - - -
20/08:00pm 9.8 E 8 10 1026.4 - 0.0 - - 10 - - - -
20/07:30pm 7.7 ESE 6 7 1026.3 - 0.0 - - 10 - - - -
20/07:00pm 9.1 E 6 7 1026.1 - 0.0 - - 10 - - - -
20/06:30pm 9.4 ESE 8 10 1025.8 - 0.0 - - 10 - - - -
20/06:00pm 10.2 ESE 9 11 1025.7 - 0.0 - - 10 - - - -
20/05:30pm 11.8 ESE 10 12 1025.4 - 0.0 - - 10 - - - -
20/05:00pm 12.6 E 11 13 1025.4 - 0.0 - - 10 - - - -
20/04:30pm 13.3 E 10 12 1025.5 - 0.0 - - 10 - - - -
20/04:00pm 13.4 E 11 14 1025.4 - 0.0 - - 10 - - - -
20/03:30pm 13.7 ENE 11 14 1025.3 - 0.0 - - 10 - - - -
20/03:00pm 13.6 NE 9 11 1025.5 - 0.0 - - 10 - - - -
20/02:30pm 12.3 ENE 10 13 1025.7 - 0.0 - - 10 - - - -
20/02:00pm 12.8 NE 10 13 1025.8 - 0.0 - Partly cloudy 10 - - - -
20/01:30pm 13.1 NE 9 11 1026.0 - 0.0 - Cloudy 10 - - - -
20/01:00pm 13.1 NE 9 12 1026.5 - 0.0 - Cloudy 10 - - - -
20/12:30pm 13.2 NE 9 14 1026.9 - 0.0 - Cloudy 10 - - - -
20/12:00pm 13.8 NE 11 14 1027.3 - 0.0 - Cloudy 10 - - - -
20/11:30am 13.5 NE 12 14 1027.5 - 0.0 - Cloudy 10 - - - -
20/11:00am 13.4 NE 11 15 1027.6 - 0.0 - Cloudy 10 - - - -
20/10:30am 13.0 NE 9 13 1027.7 - 0.0 - Cloudy 10 - - - -
20/10:10am 12.7 NE 11 13 1027.8 - 0.0 - Cloudy 10 - - - -
20/10:00am 12.7 NE 9 11 1027.8 - 0.0 - Partly cloudy 5 - - - -
20/09:58am 12.7 NE 9 11 1027.8 - 0.0 - Cloudy 5 - - - -
20/09:30am 12.4 NE 8 11 1027.8 - 0.0 - Cloudy 10 - - - -
20/09:00am 11.8 E 10 15 1027.8 - 0.0 - Cloudy 10 - - - -
20/08:30am 11.6 NE 9 11 1027.5 - 0.0 - Cloudy 10 - - - -
20/08:00am 11.6 ENE 12 15 1027.2 - 0.0 - Cloudy 10 - - - -
20/07:30am 11.4 ENE 10 13 1026.7 - 0.0 - Cloudy 10 - - - -
20/07:00am 11.0 ENE 9 13 1026.5 - 0.0 - Cloudy 10 - - - -
20/06:30am 10.7 ENE 11 16 1026.3 - 0.0 - Cloudy 10 - - - -
20/06:00am 11.0 E 13 17 1026.0 - 0.0 - Cloudy 10 - - - -
20/05:30am 11.3 ENE 12 16 1025.8 - 0.0 - Cloudy 10 - - - -
20/05:00am 11.0 ENE 9 13 1025.7 - 0.0 - Cloudy 10 - - - -
20/04:30am 10.8 E 10 13 1025.8 - 0.0 - Partly cloudy 10 - - - -
20/04:00am 10.5 E 13 16 1025.7 - 0.0 - - 10 - - - -
20/03:30am 10.5 E 11 14 1025.6 - 0.0 - Partly cloudy 10 - - - -
20/03:00am 10.4 ENE 8 12 1025.8 - 0.0 - Cloudy 10 - - - -
20/02:30am 10.5 ENE 8 11 1026.1 - 0.0 - Cloudy 10 - - - -
20/02:00am 10.5 ENE 9 11 1026.3 - 0.0 - Cloudy 10 - - - -
20/01:30am 9.8 E 9 12 1026.3 - 0.0 - Partly cloudy 10 - - - -
20/01:00am 9.7 ENE 9 10 1026.4 - 0.0 - Partly cloudy 10 - - - -
20/12:30am 9.6 E 7 8 1026.5 - 0.0 - Partly cloudy 10 - - - -
20/12:00am 10.2 E 11 15 1026.7 - 0.0 - Partly cloudy 10 - - - -
 
Date/Time
CST
Temp

°C
Wind Pressure Rain
since 9am
mm
Weather Cloud Vis
km
Sea
Height
m
Swell
Dir
 
Speed
knots
Gust
knots
hPa Trend Height
m
Period
s
Dir
19/11:30pm 7.1 CALM 0 0 1026.6 - 0.0 - Partly cloudy 10 - - - -
19/11:00pm 7.0 NNW 4 7 1026.8 - 0.0 - Partly cloudy 10 - - - -
19/10:30pm 6.4 WNW 7 8 1027.0 - 0.0 - Partly cloudy 10 - - - -
19/10:00pm 5.1 WNW 7 7 1027.1 - 0.0 - - 10 - - - -
19/09:30pm 5.3 NW 7 8 1027.1 - 0.0 - - 10 - - - -
19/09:00pm 5.3 NW 7 8 1027.0 - 0.0 - - 10 - - - -
19/08:30pm 5.5 NW 7 8 1026.9 - 0.0 - - 10 - - - -
19/08:00pm 4.7 NW 5 5 1026.8 - 0.0 - - 10 - - - -
19/07:30pm 5.6 CALM 0 0 1026.6 - 0.0 - - 10 - - - -
19/07:00pm 6.6 CALM 0 3 1026.5 - 0.0 - - 10 - - - -
19/06:30pm 7.9 N 4 5 1026.1 - 0.0 - - 10 - - - -
19/06:00pm 9.8 NE 6 7 1026.0 - 0.0 - - 10 - - - -
19/05:30pm 11.5 NE 7 10 1025.8 - 0.0 - - 10 - - - -
19/05:00pm 12.5 ENE 9 11 1025.6 - 0.0 - - 10 - - - -
19/04:30pm 13.1 ENE 10 13 1025.5 - 0.0 - - 10 - - - -
19/04:00pm 13.3 ENE 11 13 1025.4 - 0.0 - - 10 - - - -

Other Formats:

Comma delimited format used in spreadsheet applications
http://www.bom.gov.au/fwo/IDS60701/IDS60701.95661.axf

JavaScript Object Notation format (JSON) in row-major order
http://www.bom.gov.au/fwo/IDS60701/IDS60701.95661.json